createdAt,value
2023-09-13T00:04:08.434Z,100810.38
2023-09-13T00:09:12.715Z,100805.19
2023-09-13T00:14:15.934Z,100815.53
2023-09-13T00:19:19.044Z,100820.81
2023-09-13T00:24:23.211Z,100820.59
2023-09-13T00:29:25.988Z,100801.41
2023-09-13T00:34:29.026Z,100788.84
2023-09-13T00:39:33.270Z,100784.81
2023-09-13T00:44:36.051Z,100780.59
2023-09-13T00:49:39.325Z,100790.94
2023-09-13T00:54:43.741Z,100788.91
2023-09-13T00:59:46.615Z,100795.47
2023-09-13T01:04:49.710Z,100789.53
2023-09-13T01:09:54.200Z,100787.75
2023-09-13T01:14:57.134Z,100790.41
2023-09-13T01:20:08.595Z,100789.84
2023-09-13T01:25:33.644Z,100780.19
2023-09-13T01:30:39.500Z,100799.25
2023-09-13T01:35:42.394Z,100800.34
2023-09-13T01:40:46.908Z,100805.03
2023-09-13T01:45:52.442Z,100811.88
2023-09-13T01:50:55.604Z,100816.31
2023-09-13T01:55:58.540Z,100815.75
2023-09-13T02:01:03.256Z,100815.06
2023-09-13T02:06:06.710Z,100813.56
2023-09-13T02:11:09.673Z,100805.25
2023-09-13T02:16:21.338Z,100811.84
2023-09-13T02:21:24.244Z,100794.56
2023-09-13T02:26:56.158Z,100790.22
2023-09-13T02:32:00.488Z,100788.28
2023-09-13T02:37:03.582Z,100784.88
2023-09-13T02:42:08.158Z,100769.75
2023-09-13T02:47:12.387Z,100780.81
2023-09-13T02:52:15.523Z,100790.41
2023-09-13T02:57:18.381Z,100785.53
2023-09-13T03:02:22.628Z,100794.56
2023-09-13T03:07:25.737Z,100801.31
2023-09-13T03:12:29.298Z,100805.72
2023-09-13T03:17:33.696Z,100800.66
2023-09-13T03:22:36.600Z,100794.81
2023-09-13T03:27:39.533Z,100777.19
2023-09-13T03:32:43.906Z,101363.03
2023-09-13T03:37:46.753Z,100972.47
2023-09-13T03:42:49.788Z,100869.38
2023-09-13T03:47:54.337Z,100882.94
2023-09-13T03:52:57.215Z,100759.53
2023-09-13T03:58:00.112Z,100767.09
2023-09-13T04:03:04.787Z,100777.63
2023-09-13T04:08:08.389Z,100772.50
2023-09-13T04:13:11.201Z,100790.47
2023-09-13T04:18:15.481Z,100792.31
2023-09-13T04:23:18.449Z,100814.38
2023-09-13T04:28:21.648Z,100821.78
2023-09-13T04:33:53.386Z,100829.59
2023-09-13T04:39:03.483Z,100771.50
2023-09-13T04:44:07.132Z,100825.41
2023-09-13T04:49:11.498Z,100809.47
2023-09-13T04:54:14.401Z,100818.72
2023-09-13T04:59:17.636Z,100842.28
2023-09-13T05:04:22.034Z,100852.81
2023-09-13T05:09:24.950Z,100852.88
2023-09-13T05:14:29.494Z,100864.72
2023-09-13T05:19:33.763Z,100905.91
2023-09-13T05:24:36.633Z,100877.03
2023-09-13T05:29:39.420Z,100885.28
2023-09-13T05:34:43.659Z,100902.22
2023-09-13T05:39:46.485Z,100915.13
2023-09-13T05:44:49.322Z,100869.78
2023-09-13T05:49:53.499Z,100852.84
2023-09-13T05:54:56.463Z,100821.25
2023-09-13T05:59:59.265Z,100834.50
2023-09-13T06:05:05.644Z,100833.09
2023-09-13T06:10:12.278Z,100848.81
2023-09-13T06:15:15.237Z,100879.59
2023-09-13T06:20:19.678Z,100853.09
2023-09-13T06:25:22.600Z,100858.00
2023-09-13T06:30:25.653Z,100858.56
2023-09-13T06:35:30.136Z,100873.13
2023-09-13T06:40:36.329Z,100883.59
2023-09-13T06:45:55.966Z,100899.69
2023-09-13T06:56:12.076Z,100909.59
2023-09-13T07:06:24.068Z,100925.38
2023-09-13T07:11:27.399Z,100927.69
2023-09-13T07:16:30.593Z,100938.69
2023-09-13T07:21:34.838Z,100939.66
2023-09-13T07:26:37.643Z,100937.59
2023-09-13T07:31:40.523Z,100948.88
2023-09-13T07:36:44.761Z,100953.91
2023-09-13T07:41:47.548Z,100956.94
2023-09-13T07:46:50.532Z,100959.38
2023-09-13T07:51:54.859Z,100961.19
2023-09-13T07:56:57.638Z,100976.28
2023-09-13T08:02:00.833Z,100981.41
2023-09-13T08:07:05.448Z,100990.34
2023-09-13T08:12:08.975Z,101004.28
2023-09-13T08:17:11.880Z,101000.16
2023-09-13T08:22:20.115Z,101012.50
2023-09-13T08:27:32.539Z,101008.09
2023-09-13T08:32:35.388Z,101013.00
2023-09-13T08:37:39.557Z,101022.88
2023-09-13T08:42:43.588Z,101039.22
2023-09-13T08:47:58.165Z,101042.31
2023-09-13T08:53:05.362Z,101052.28
2023-09-13T08:58:08.141Z,101054.31
2023-09-13T09:03:14.892Z,101057.94
2023-09-13T09:08:20.338Z,101069.63
2023-09-13T09:13:26.746Z,101073.66
2023-09-13T09:18:32.424Z,101062.97
2023-09-13T09:23:39.246Z,101067.25
2023-09-13T09:28:43.356Z,101067.47
2023-09-13T09:33:47.710Z,101067.78
2023-09-13T09:38:56.080Z,101075.91
2023-09-13T09:43:59.234Z,101082.03
2023-09-13T09:49:02.896Z,101093.91
2023-09-13T09:54:07.428Z,101101.34
2023-09-13T09:59:10.274Z,101099.31
2023-09-13T10:04:13.914Z,101109.97
2023-09-13T10:09:18.107Z,101106.84
2023-09-13T10:14:27.890Z,101103.09
2023-09-13T10:19:32.156Z,101106.53
2023-09-13T10:24:42.049Z,101120.16
2023-09-13T10:29:48.055Z,101122.78
2023-09-13T10:34:54.740Z,101132.59
2023-09-13T10:40:11.210Z,101144.66
2023-09-13T10:45:18.648Z,101135.97
2023-09-13T10:50:22.063Z,101143.03
2023-09-13T10:55:27.826Z,101149.50
2023-09-13T11:00:33.487Z,101153.75
2023-09-13T11:05:36.863Z,101161.16
2023-09-13T11:10:41.188Z,101154.56
2023-09-13T11:15:50.931Z,101166.47
2023-09-13T11:20:55.047Z,101169.13
2023-09-13T11:26:05.488Z,101160.34
2023-09-13T11:31:11.299Z,101171.69
2023-09-13T11:36:18.153Z,101181.91
2023-09-13T11:41:22.732Z,101181.88
2023-09-13T11:46:28.185Z,101186.34
2023-09-13T11:56:47.121Z,101190.50
2023-09-13T12:01:56.784Z,101200.34
2023-09-13T12:07:03.924Z,101218.69
2023-09-13T12:12:12.450Z,101219.31
2023-09-13T12:17:20.819Z,101227.28
2023-09-13T12:22:23.981Z,101241.91
2023-09-13T12:27:34.010Z,101252.06
2023-09-13T12:32:36.943Z,101253.75
2023-09-13T12:37:39.901Z,101263.59
2023-09-13T12:42:44.490Z,101261.72
2023-09-13T12:47:47.552Z,101263.72
2023-09-13T12:52:52.618Z,101281.91
2023-09-13T12:58:05.459Z,101295.84
2023-09-13T13:03:08.399Z,101303.97
2023-09-13T13:08:11.425Z,101305.44
2023-09-13T13:13:15.668Z,101308.19
2023-09-13T13:18:18.549Z,101318.47
2023-09-13T13:23:21.381Z,101291.84
2023-09-13T13:28:25.789Z,101303.69
2023-09-13T13:33:28.719Z,101313.13
2023-09-13T13:38:31.761Z,101304.84
2023-09-13T13:43:36.777Z,101304.50
2023-09-13T13:48:39.868Z,101314.88
2023-09-13T13:53:43.232Z,101316.84
2023-09-13T13:58:47.724Z,101298.28
2023-09-13T14:03:50.707Z,101304.28
2023-09-13T14:08:53.779Z,101303.03
2023-09-13T14:13:57.919Z,101306.66
2023-09-13T14:19:00.987Z,101294.66
2023-09-13T14:24:05.694Z,101294.44
2023-09-13T14:29:10.284Z,101301.41
2023-09-13T14:34:13.111Z,101301.09
2023-09-13T14:39:17.823Z,101311.25
2023-09-13T14:44:21.995Z,101318.66
2023-09-13T14:49:27.321Z,101311.00
2023-09-13T14:54:30.300Z,101323.44
2023-09-13T14:59:34.504Z,101321.16
2023-09-13T15:04:37.325Z,101326.81
2023-09-13T15:09:40.215Z,101332.94
2023-09-13T15:14:44.411Z,101336.22
2023-09-13T15:19:47.288Z,101334.66
2023-09-13T15:24:50.670Z,101334.44
2023-09-13T15:29:54.862Z,101346.38
2023-09-13T15:34:58.144Z,101349.88
2023-09-13T15:40:08.410Z,101364.81
2023-09-13T15:45:13.169Z,101364.22
2023-09-13T15:50:16.003Z,101361.91
2023-09-13T15:55:18.889Z,101364.97
2023-09-13T16:00:23.179Z,101360.59
2023-09-13T16:05:26.129Z,101364.56
2023-09-13T16:10:29.116Z,101359.94
2023-09-13T16:15:34.382Z,101367.22
2023-09-13T16:20:38.481Z,101374.47
2023-09-13T16:25:41.355Z,101375.25
2023-09-13T16:30:46.119Z,101375.06
2023-09-13T16:35:49.050Z,101373.88
2023-09-13T16:40:51.849Z,101386.47
2023-09-13T16:50:58.731Z,101389.28
2023-09-13T16:56:01.596Z,101398.34
2023-09-13T17:01:05.820Z,101401.38
2023-09-13T17:06:09.564Z,101414.00
2023-09-13T17:11:14.286Z,101421.63
2023-09-13T17:16:18.721Z,101423.13
2023-09-13T17:21:21.540Z,101427.84
2023-09-13T17:26:24.375Z,101443.97
2023-09-13T17:31:30.441Z,101438.22
2023-09-13T17:36:41.945Z,101448.97
2023-09-13T17:41:45.429Z,101456.41
2023-09-13T17:46:49.830Z,101452.56
2023-09-13T17:51:52.730Z,101457.00
2023-09-13T17:56:55.810Z,101460.00
2023-09-13T18:02:00.160Z,101470.06
2023-09-13T18:07:03.543Z,101470.78
2023-09-13T18:12:08.048Z,101467.13
2023-09-13T18:17:12.725Z,101474.28
2023-09-13T18:22:15.629Z,101478.84
2023-09-13T18:27:18.689Z,101488.41
2023-09-13T18:32:22.864Z,101497.00
2023-09-13T18:37:25.725Z,101500.91
2023-09-13T18:42:32.744Z,101509.25
2023-09-13T18:47:37.216Z,101515.69
2023-09-13T18:52:40.110Z,101522.19
2023-09-13T18:57:43.306Z,101525.59
2023-09-13T19:02:50.562Z,101525.22
2023-09-13T19:07:53.652Z,101533.72
2023-09-13T19:12:56.585Z,101538.28
2023-09-13T19:18:00.996Z,101548.97
2023-09-13T19:23:04.024Z,101544.06
2023-09-13T19:28:08.973Z,101555.97
2023-09-13T19:33:13.546Z,101554.69
2023-09-13T19:38:28.915Z,101561.41
2023-09-13T19:43:36.075Z,101562.72
2023-09-13T19:48:41.749Z,101577.72
2023-09-13T19:53:47.190Z,101580.16
2023-09-13T19:58:51.010Z,101588.66
2023-09-13T20:03:55.651Z,101588.97
2023-09-13T20:08:59.448Z,101591.06
2023-09-13T20:14:02.882Z,101597.97
2023-09-13T20:19:07.085Z,101603.47
2023-09-13T20:24:10.296Z,101611.19
2023-09-13T20:29:13.111Z,101609.38
2023-09-13T20:34:19.782Z,101619.03
2023-09-13T20:39:22.648Z,101621.88
2023-09-13T20:44:25.866Z,101617.56
2023-09-13T20:49:30.029Z,101631.03
2023-09-13T20:54:32.930Z,101628.22
2023-09-13T20:59:35.732Z,101630.06
2023-09-13T21:04:40.176Z,101634.88
2023-09-13T21:09:43.048Z,101635.16
2023-09-13T21:14:45.896Z,101646.53
2023-09-13T21:19:50.057Z,101651.34
2023-09-13T21:24:53.712Z,101654.69
2023-09-13T21:29:56.522Z,101649.88
2023-09-13T21:35:02.815Z,101654.13
2023-09-13T21:40:07.729Z,101657.94
2023-09-13T21:45:11.363Z,101658.34
2023-09-13T21:50:15.702Z,101655.88
2023-09-13T21:55:18.694Z,101657.34
2023-09-13T22:00:22.358Z,101656.53
2023-09-13T22:05:26.903Z,101665.00
2023-09-13T22:10:30.069Z,101655.03
2023-09-13T22:15:33.043Z,101663.34
2023-09-13T22:20:38.702Z,101663.97
2023-09-13T22:25:41.790Z,101666.31
2023-09-13T22:30:44.851Z,101672.19
2023-09-13T22:35:49.209Z,101680.50
2023-09-13T22:40:52.622Z,101689.25
2023-09-13T22:45:55.778Z,101693.03
2023-09-13T22:51:00.521Z,101710.34
2023-09-13T22:56:03.555Z,101710.91
2023-09-13T23:01:10.634Z,101707.09
2023-09-13T23:06:15.620Z,101703.31
2023-09-13T23:11:18.628Z,101699.16
2023-09-13T23:16:21.966Z,101708.66
2023-09-13T23:21:26.263Z,101719.03
2023-09-13T23:26:30.221Z,101724.88
2023-09-13T23:31:35.216Z,101726.81
2023-09-13T23:36:39.480Z,101721.03
2023-09-13T23:41:42.289Z,101729.25
2023-09-13T23:46:45.236Z,101729.38
2023-09-13T23:51:49.548Z,101724.09
2023-09-13T23:56:52.358Z,101723.88
